Terminal Aerodrome Forecast
Issued by NWS Newport/Morehead City, NC

Home | Current Version | Previous Version | Graphics & Text | Print | Product List | Glossary On
Versions: 1 2 3 4 5 6 7 8 9 10 11 12 13 14 15
000
FTUS42 KMHX 090525
TAFEWN
TAF
KEWN 090525Z 0906/1006 03010KT 3SM RA BKN006 OVC030
     FM091500 35010KT 3SM RA OVC010
     FM091700 33010KT 2SM RA OVC007
     FM091900 33010KT P6SM OVC007
     FM092300 30010KT P6SM OVC010=

USA.gov is the U.S. government's official web portal to all federal, state and local government web resources and services.